Time;durP1;ratioP1;P1;durP2;ratioP2;P2;SDS_P1;SDS_P2;PMS_P1;PMS_P2;Temp;Humidity;BMP_temperature;BMP_pressure;BME280_temperature;BME280_humidity;BME280_pressure;Samples;Min_cycle;Max_cycle;Signal;HPM_P1;HPM_P2
2023/05/07 00:01:57;;;;;;;16.48;14.18;;;11.40;99.90;;;;;;5001151;28;20030;-49
2023/05/07 00:04:43;;;;;;;18.88;15.25;;;11.30;99.90;;;;;;5002024;28;20123;-50
2023/05/07 00:07:29;;;;;;;18.88;15.95;;;11.20;99.90;;;;;;5002978;28;20088;-51
2023/05/07 00:10:15;;;;;;;22.27;17.88;;;11.10;99.90;;;;;;5000637;28;20240;-49
2023/05/07 00:13:01;;;;;;;21.15;17.67;;;11.00;99.90;;;;;;4992449;28;20035;-50
2023/05/07 00:15:47;;;;;;;20.30;17.45;;;10.90;99.90;;;;;;5000448;28;20402;-52
2023/05/07 00:18:33;;;;;;;25.48;20.35;;;10.90;99.90;;;;;;5005417;28;20549;-50
2023/05/07 00:21:19;;;;;;;22.13;17.63;;;10.90;99.90;;;;;;5005674;28;20062;-50
2023/05/07 00:24:05;;;;;;;20.40;15.45;;;11.00;99.90;;;;;;5009424;28;20030;-51
2023/05/07 00:26:52;;;;;;;17.33;14.20;;;10.90;99.90;;;;;;5011902;28;20124;-48
2023/05/07 00:29:38;;;;;;;17.15;14.93;;;10.90;99.90;;;;;;5005011;28;20469;-51
2023/05/07 00:32:24;;;;;;;21.63;18.00;;;10.90;99.90;;;;;;5003226;28;20042;-49
2023/05/07 00:35:10;;;;;;;21.98;15.85;;;10.80;99.90;;;;;;5003664;28;20483;-53
2023/05/07 00:37:57;;;;;;;18.52;14.70;;;10.80;99.90;;;;;;5009821;28;20021;-51
2023/05/07 00:40:43;;;;;;;24.42;17.15;;;10.80;99.90;;;;;;4994350;28;20427;-52
2023/05/07 00:43:29;;;;;;;19.83;15.80;;;10.80;99.90;;;;;;4994290;28;20030;-50
2023/05/07 00:46:15;;;;;;;16.60;13.68;;;10.70;99.90;;;;;;4995244;28;20029;-49
2023/05/07 00:49:02;;;;;;;18.65;15.35;;;10.80;99.90;;;;;;4994483;28;20038;-48
2023/05/07 00:51:48;;;;;;;18.27;14.80;;;10.80;99.90;;;;;;5001639;28;20510;-48
2023/05/07 00:54:34;;;;;;;16.20;14.32;;;10.80;99.90;;;;;;5004457;28;20035;-50
2023/05/07 00:57:21;;;;;;;16.08;14.15;;;10.80;99.90;;;;;;5005319;28;20491;-56
2023/05/07 01:00:09;;;;;;;17.10;14.07;;;10.70;99.90;;;;;;5006408;28;20031;-48
2023/05/07 01:02:55;;;;;;;17.08;14.48;;;10.70;99.90;;;;;;5003856;28;20499;-51
2023/05/07 01:05:42;;;;;;;16.92;14.02;;;10.80;99.90;;;;;;5005662;28;20439;-48
2023/05/07 01:08:29;;;;;;;17.67;14.95;;;10.90;99.90;;;;;;5004064;28;20080;-52
2023/05/07 01:11:16;;;;;;;16.58;14.18;;;10.80;99.90;;;;;;5005010;28;20023;-50
2023/05/07 01:14:02;;;;;;;17.25;14.85;;;10.90;99.90;;;;;;5002103;28;20018;-50
2023/05/07 01:16:50;;;;;;;16.73;14.05;;;10.90;99.90;;;;;;5005191;28;20446;-49
2023/05/07 01:19:36;;;;;;;18.42;15.13;;;11.00;99.90;;;;;;5003504;28;20022;-51
2023/05/07 01:22:34;;;;;;;15.93;14.23;;;10.90;99.90;;;;;;5005539;28;20057;-52
2023/05/07 01:25:20;;;;;;;17.02;15.23;;;10.80;99.90;;;;;;5003260;28;20099;-53
2023/05/07 01:28:06;;;;;;;18.60;14.38;;;10.90;99.90;;;;;;5004830;28;20040;-51
2023/05/07 01:30:56;;;;;;;16.10;13.85;;;10.90;99.90;;;;;;5004558;28;20029;-49
2023/05/07 01:33:45;;;;;;;16.08;13.73;;;10.80;99.90;;;;;;5013941;28;20025;-48
2023/05/07 01:36:33;;;;;;;15.60;13.32;;;10.70;99.90;;;;;;5013882;28;20118;-51
2023/05/07 01:39:19;;;;;;;15.98;13.02;;;10.70;99.90;;;;;;5013546;28;20026;-49
2023/05/07 01:42:05;;;;;;;14.65;12.90;;;10.60;99.90;;;;;;5013463;28;20037;-52
2023/05/07 01:44:51;;;;;;;15.40;12.85;;;10.70;99.90;;;;;;5014022;28;20038;-49
2023/05/07 01:47:38;;;;;;;14.18;12.60;;;10.70;99.90;;;;;;5013715;28;20030;-50
2023/05/07 01:50:24;;;;;;;15.18;13.15;;;10.70;99.90;;;;;;5013571;28;20034;-52
2023/05/07 01:53:10;;;;;;;15.55;12.93;;;10.70;99.90;;;;;;5013692;28;20079;-51
2023/05/07 01:55:56;;;;;;;16.63;12.82;;;10.60;99.90;;;;;;5013690;28;20022;-50
2023/05/07 01:58:42;;;;;;;15.10;12.75;;;10.60;99.90;;;;;;5013783;28;20042;-49
2023/05/07 02:01:28;;;;;;;14.93;13.02;;;10.60;99.90;;;;;;5014057;28;20149;-50
2023/05/07 02:04:14;;;;;;;14.98;12.52;;;10.60;99.90;;;;;;5013191;28;20046;-54
2023/05/07 02:07:00;;;;;;;14.32;12.88;;;10.60;99.90;;;;;;5014472;28;20115;-54
2023/05/07 02:09:46;;;;;;;16.38;12.85;;;10.70;99.90;;;;;;5018540;28;20030;-53
2023/05/07 02:12:32;;;;;;;15.32;13.23;;;10.70;99.90;;;;;;5013591;28;20119;-50
2023/05/07 02:15:18;;;;;;;14.75;13.30;;;10.70;99.90;;;;;;5013449;28;20025;-51
2023/05/07 02:18:07;;;;;;;14.50;12.93;;;10.70;99.90;;;;;;5012886;28;20113;-51
2023/05/07 02:20:52;;;;;;;14.32;12.82;;;10.70;99.90;;;;;;5013212;28;20161;-53
2023/05/07 02:23:38;;;;;;;14.95;12.95;;;10.70;99.90;;;;;;5013194;28;20026;-49
2023/05/07 02:26:25;;;;;;;14.75;12.38;;;10.70;99.90;;;;;;5012861;28;20446;-49
2023/05/07 02:29:11;;;;;;;14.15;12.63;;;10.80;99.90;;;;;;5012078;28;20112;-49
2023/05/07 02:31:57;;;;;;;15.75;12.77;;;10.80;99.90;;;;;;5013261;28;20030;-49
2023/05/07 02:34:44;;;;;;;14.68;13.07;;;10.80;99.90;;;;;;5012811;28;20046;-49
2023/05/07 02:37:30;;;;;;;14.93;13.35;;;10.80;99.90;;;;;;5011785;28;20033;-49
2023/05/07 02:40:16;;;;;;;15.07;13.10;;;10.80;99.90;;;;;;5013293;28;20027;-50
2023/05/07 02:43:02;;;;;;;14.52;12.93;;;10.90;99.90;;;;;;5014392;28;20064;-50
2023/05/07 02:45:48;;;;;;;14.80;13.27;;;10.90;99.90;;;;;;5013906;28;20022;-49
2023/05/07 02:48:34;;;;;;;15.85;13.75;;;10.80;99.90;;;;;;5012609;28;20045;-49
2023/05/07 02:51:22;;;;;;;14.90;13.15;;;10.80;99.90;;;;;;5012992;28;20053;-48
2023/05/07 02:54:08;;;;;;;14.15;12.65;;;10.80;99.90;;;;;;5012353;28;20025;-50
2023/05/07 02:56:54;;;;;;;33.95;22.48;;;10.90;99.90;;;;;;5011880;28;20026;-51
2023/05/07 02:59:40;;;;;;;14.82;13.25;;;10.90;99.90;;;;;;5012597;28;20108;-52
2023/05/07 03:02:26;;;;;;;15.25;13.25;;;11.00;99.90;;;;;;5012150;28;20537;-49
2023/05/07 03:05:12;;;;;;;16.55;13.52;;;11.00;99.90;;;;;;5012601;28;20041;-50
2023/05/07 03:07:58;;;;;;;14.68;13.15;;;11.00;99.90;;;;;;5011980;28;20084;-50
2023/05/07 03:10:44;;;;;;;15.77;13.18;;;10.90;99.90;;;;;;5012359;28;20523;-50
2023/05/07 03:13:30;;;;;;;14.95;13.38;;;10.90;99.90;;;;;;5014446;28;20058;-50
2023/05/07 03:16:16;;;;;;;19.85;15.63;;;10.80;99.90;;;;;;5011869;28;20030;-50
2023/05/07 03:19:02;;;;;;;17.60;14.63;;;10.80;99.90;;;;;;5012244;28;20026;-50
2023/05/07 03:21:48;;;;;;;17.08;14.68;;;10.80;99.90;;;;;;5012000;28;20034;-51
2023/05/07 03:24:34;;;;;;;17.13;15.32;;;10.70;99.90;;;;;;5012657;28;20387;-50
2023/05/07 03:27:20;;;;;;;18.63;15.82;;;10.60;99.90;;;;;;5013333;28;20562;-53
2023/05/07 03:30:07;;;;;;;17.88;16.08;;;10.60;99.90;;;;;;5019902;28;20030;-50
2023/05/07 03:32:53;;;;;;;18.25;16.38;;;10.50;99.90;;;;;;5012893;28;20498;-51
2023/05/07 03:35:39;;;;;;;19.98;17.83;;;10.50;99.90;;;;;;5012884;28;20387;-50
2023/05/07 03:38:25;;;;;;;21.67;18.67;;;10.40;99.90;;;;;;5012498;28;20026;-49
2023/05/07 03:41:12;;;;;;;20.42;18.13;;;10.40;99.90;;;;;;5011660;28;20030;-51
2023/05/07 03:43:58;;;;;;;24.25;19.85;;;10.50;99.90;;;;;;5011640;28;20033;-51
2023/05/07 03:46:44;;;;;;;20.25;17.80;;;10.50;99.90;;;;;;5011617;28;20141;-50
2023/05/07 03:49:30;;;;;;;21.40;19.10;;;10.50;99.90;;;;;;5014196;28;20462;-52
2023/05/07 03:52:22;;;;;;;21.05;18.30;;;10.50;99.90;;;;;;5015927;28;20037;-53
2023/05/07 03:55:08;;;;;;;20.63;18.15;;;10.50;99.90;;;;;;5015631;28;20026;-50
2023/05/07 03:57:54;;;;;;;21.35;19.10;;;10.50;99.90;;;;;;5015352;28;20594;-51
2023/05/07 04:00:40;;;;;;;21.40;18.23;;;10.50;99.90;;;;;;5015742;28;20383;-54
2023/05/07 04:03:26;;;;;;;23.02;19.17;;;10.40;99.90;;;;;;5016303;28;20038;-50
2023/05/07 04:06:12;;;;;;;21.08;18.77;;;10.40;99.90;;;;;;5015631;28;20498;-50
2023/05/07 04:08:58;;;;;;;22.48;18.95;;;10.50;99.90;;;;;;5015382;28;20042;-52
2023/05/07 04:11:45;;;;;;;21.02;18.20;;;10.60;99.90;;;;;;5015671;28;20030;-49
2023/05/07 04:14:32;;;;;;;22.05;19.42;;;10.50;99.90;;;;;;5015033;28;20065;-50
2023/05/07 04:17:17;;;;;;;21.00;18.45;;;10.60;99.90;;;;;;5015046;28;20025;-50
2023/05/07 04:20:05;;;;;;;23.85;19.30;;;10.60;99.90;;;;;;5015060;28;20564;-49
2023/05/07 04:22:51;;;;;;;22.58;19.02;;;10.40;99.90;;;;;;5019504;28;20034;-50
2023/05/07 04:25:37;;;;;;;20.55;18.02;;;10.40;99.90;;;;;;5015649;28;20487;-49
2023/05/07 04:28:24;;;;;;;21.52;19.15;;;10.50;99.90;;;;;;5015150;28;20034;-48
2023/05/07 04:31:10;;;;;;;24.05;18.75;;;10.50;99.90;;;;;;5015224;28;20498;-50
2023/05/07 04:33:56;;;;;;;21.95;19.58;;;10.60;99.90;;;;;;5014694;28;20022;-50
2023/05/07 04:36:42;;;;;;;21.42;19.15;;;10.50;99.90;;;;;;5014851;28;20510;-50
2023/05/07 04:39:28;;;;;;;21.17;18.88;;;10.50;99.90;;;;;;5013853;28;20026;-53
2023/05/07 04:42:18;;;;;;;23.67;20.20;;;10.60;99.90;;;;;;5015216;28;20033;-53
2023/05/07 04:45:05;;;;;;;22.80;20.27;;;10.50;99.90;;;;;;5015188;28;20026;-51
2023/05/07 04:47:50;;;;;;;25.48;21.13;;;10.50;99.90;;;;;;5014926;28;20117;-49
2023/05/07 04:50:37;;;;;;;28.50;22.48;;;10.60;99.90;;;;;;5014218;28;20045;-48
2023/05/07 04:53:23;;;;;;;26.17;21.58;;;10.50;99.90;;;;;;5016557;28;20026;-54
2023/05/07 04:56:09;;;;;;;24.85;21.08;;;10.40;99.90;;;;;;5015128;28;20022;-48
2023/05/07 04:58:55;;;;;;;27.52;22.00;;;10.40;99.90;;;;;;5020256;28;20092;-49
2023/05/07 05:01:41;;;;;;;26.00;22.23;;;10.30;99.90;;;;;;5021417;28;20030;-49
2023/05/07 05:04:27;;;;;;;23.38;20.80;;;10.40;99.90;;;;;;5015917;28;20484;-48
2023/05/07 05:07:13;;;;;;;27.85;21.95;;;10.40;99.90;;;;;;5015163;28;20026;-47
2023/05/07 05:09:59;;;;;;;27.27;22.83;;;10.40;99.90;;;;;;5015371;28;20118;-48
2023/05/07 05:12:45;;;;;;;25.10;22.00;;;10.50;99.90;;;;;;5015015;28;20041;-49
2023/05/07 05:15:31;;;;;;;26.08;22.35;;;10.50;99.90;;;;;;5014578;28;20052;-49
2023/05/07 05:18:17;;;;;;;27.23;21.65;;;10.60;99.90;;;;;;5013995;28;20364;-51
2023/05/07 05:21:03;;;;;;;28.17;21.73;;;10.60;99.90;;;;;;5014034;28;20026;-51
2023/05/07 05:23:49;;;;;;;25.00;21.92;;;10.60;99.90;;;;;;5015193;28;20533;-52
2023/05/07 05:26:36;;;;;;;24.65;21.88;;;10.60;99.90;;;;;;5014935;28;20026;-50
2023/05/07 05:29:22;;;;;;;24.52;21.73;;;10.70;99.90;;;;;;5015033;28;20030;-49
2023/05/07 05:32:08;;;;;;;25.42;22.40;;;10.60;99.90;;;;;;5014670;28;20112;-51
2023/05/07 05:34:54;;;;;;;28.85;22.65;;;10.60;99.90;;;;;;5014011;28;20030;-52
2023/05/07 05:37:40;;;;;;;25.45;22.05;;;10.60;99.90;;;;;;5014174;28;20560;-52
2023/05/07 05:40:26;;;;;;;27.27;23.63;;;10.60;99.90;;;;;;5013794;28;20042;-54
2023/05/07 05:43:13;;;;;;;24.25;21.75;;;10.70;99.90;;;;;;5014046;28;20446;-51
2023/05/07 05:46:00;;;;;;;25.30;20.15;;;10.80;99.90;;;;;;5014313;28;20041;-51
2023/05/07 05:48:46;;;;;;;37.03;27.65;;;10.80;99.90;;;;;;5014043;28;20053;-51
2023/05/07 05:51:32;;;;;;;26.35;22.08;;;10.80;99.90;;;;;;5013908;28;20124;-51
2023/05/07 05:54:18;;;;;;;47.50;33.78;;;10.70;99.90;;;;;;5014432;28;20026;-47
2023/05/07 05:57:04;;;;;;;25.33;21.77;;;10.60;99.90;;;;;;5015409;28;20030;-49
2023/05/07 05:59:50;;;;;;;22.27;19.80;;;10.80;99.90;;;;;;5014758;28;20054;-50
2023/05/07 06:02:37;;;;;;;22.70;20.33;;;10.90;99.90;;;;;;5014928;28;20041;-51
2023/05/07 06:05:23;;;;;;;28.88;23.10;;;10.80;99.90;;;;;;5014597;28;20026;-48
2023/05/07 06:08:08;;;;;;;21.58;19.38;;;10.70;99.90;;;;;;5016953;28;20410;-52
2023/05/07 06:10:55;;;;;;;22.42;20.05;;;10.70;99.90;;;;;;5019343;28;20049;-51
2023/05/07 06:13:41;;;;;;;21.70;19.20;;;10.70;99.90;;;;;;5018890;28;20521;-52
2023/05/07 06:16:27;;;;;;;21.17;18.80;;;10.60;99.90;;;;;;5013653;28;20030;-55
2023/05/07 06:19:13;;;;;;;21.75;19.35;;;10.70;99.90;;;;;;5013445;28;20061;-49
2023/05/07 06:22:01;;;;;;;19.60;17.15;;;10.60;99.90;;;;;;5013534;28;20564;-50
2023/05/07 06:24:47;;;;;;;20.88;18.58;;;10.60;99.90;;;;;;5013945;28;20529;-51
2023/05/07 06:27:33;;;;;;;19.40;17.48;;;10.60;99.90;;;;;;5013609;28;20520;-53
2023/05/07 06:30:19;;;;;;;19.90;17.63;;;10.60;99.90;;;;;;5013498;28;20036;-50
2023/05/07 06:33:05;;;;;;;25.52;20.52;;;10.70;99.90;;;;;;5012065;28;20407;-53
2023/05/07 06:35:50;;;;;;;27.02;21.17;;;10.80;99.90;;;;;;5013212;28;20038;-51
2023/05/07 06:38:36;;;;;;;19.05;16.67;;;10.80;99.90;;;;;;5018318;28;20129;-52
2023/05/07 06:41:22;;;;;;;16.67;14.98;;;10.80;99.90;;;;;;5012977;28;20030;-50
2023/05/07 06:44:08;;;;;;;15.57;14.02;;;10.90;99.90;;;;;;5013350;28;20072;-51
2023/05/07 06:46:54;;;;;;;15.68;14.00;;;10.80;99.90;;;;;;5013330;28;20033;-50
2023/05/07 06:49:40;;;;;;;15.60;14.00;;;10.80;99.90;;;;;;5012789;28;20040;-50
2023/05/07 06:52:26;;;;;;;15.57;13.38;;;10.90;99.90;;;;;;5012552;28;20229;-51
2023/05/07 06:55:12;;;;;;;15.30;13.73;;;10.90;99.90;;;;;;5012355;28;20548;-53
2023/05/07 06:58:00;;;;;;;27.90;22.65;;;11.00;99.90;;;;;;5012127;28;20041;-50
2023/05/07 07:00:46;;;;;;;20.90;13.75;;;11.00;99.90;;;;;;5012878;28;20531;-53
2023/05/07 07:03:32;;;;;;;19.25;12.05;;;11.00;99.90;;;;;;5012909;28;20426;-54
2023/05/07 07:06:18;;;;;;;18.20;11.32;;;11.00;99.90;;;;;;5013010;28;20514;-53
2023/05/07 07:09:04;;;;;;;13.52;12.02;;;10.90;99.90;;;;;;5012439;28;20025;-51
2023/05/07 07:11:50;;;;;;;12.48;10.65;;;10.80;99.90;;;;;;5012681;28;20083;-50
2023/05/07 07:14:36;;;;;;;13.98;10.85;;;10.90;99.90;;;;;;5016653;28;20026;-54
2023/05/07 07:17:22;;;;;;;12.07;10.85;;;11.00;99.90;;;;;;5017592;28;20025;-52
2023/05/07 07:20:09;;;;;;;17.63;12.57;;;11.00;99.90;;;;;;5013477;28;20042;-50
2023/05/07 07:22:55;;;;;;;13.73;12.25;;;11.10;99.90;;;;;;5012109;28;20422;-51
2023/05/07 07:25:41;;;;;;;13.30;11.95;;;11.30;99.90;;;;;;5012710;28;20099;-52
2023/05/07 07:28:27;;;;;;;14.02;12.02;;;11.30;99.90;;;;;;5012273;28;20459;-53
2023/05/07 07:31:13;;;;;;;15.68;14.02;;;11.50;99.90;;;;;;5012512;28;20112;-51
2023/05/07 07:33:59;;;;;;;19.20;14.63;;;11.50;99.90;;;;;;5012621;28;20058;-51
2023/05/07 07:36:45;;;;;;;19.42;15.80;;;11.50;99.90;;;;;;5012582;28;20029;-53
2023/05/07 07:39:32;;;;;;;18.52;16.63;;;11.60;99.90;;;;;;5011834;28;20498;-50
2023/05/07 07:42:18;;;;;;;18.23;16.20;;;11.60;99.90;;;;;;5012642;28;20053;-53
2023/05/07 07:45:04;;;;;;;17.42;15.63;;;11.50;99.90;;;;;;5003457;28;20069;-50
2023/05/07 07:47:51;;;;;;;19.42;15.68;;;11.40;99.90;;;;;;5000649;28;20108;-53
2023/05/07 07:50:37;;;;;;;18.40;16.38;;;11.50;99.90;;;;;;5000930;28;20041;-53
2023/05/07 07:53:23;;;;;;;17.23;15.43;;;11.40;99.90;;;;;;5004091;28;20034;-51
2023/05/07 07:56:09;;;;;;;17.60;15.75;;;11.40;99.90;;;;;;5003571;28;20030;-51
2023/05/07 07:58:54;;;;;;;17.88;16.05;;;11.40;99.90;;;;;;5001690;28;20039;-51
2023/05/07 08:01:40;;;;;;;17.75;15.88;;;11.30;99.90;;;;;;5003580;28;20033;-53
2023/05/07 08:04:26;;;;;;;16.60;14.85;;;11.40;99.90;;;;;;5001881;28;20041;-52
2023/05/07 08:07:13;;;;;;;15.70;14.13;;;11.40;99.90;;;;;;5000775;28;20443;-51
2023/05/07 08:09:59;;;;;;;16.40;14.68;;;11.50;99.90;;;;;;5001343;28;20046;-59
2023/05/07 08:12:45;;;;;;;15.98;13.55;;;11.70;99.90;;;;;;5002265;28;20038;-55
2023/05/07 08:15:31;;;;;;;14.88;13.23;;;11.80;99.90;;;;;;5003438;28;20041;-51
2023/05/07 08:18:17;;;;;;;12.82;11.52;;;11.90;99.90;;;;;;5000102;28;20080;-52
2023/05/07 08:21:03;;;;;;;12.85;11.55;;;12.10;99.90;;;;;;5001750;28;20379;-52
2023/05/07 08:23:49;;;;;;;14.45;12.82;;;12.00;99.90;;;;;;5004246;28;20034;-54
2023/05/07 08:26:35;;;;;;;13.55;12.10;;;11.90;99.90;;;;;;5001250;28;20458;-51
2023/05/07 08:29:21;;;;;;;13.88;12.38;;;11.90;99.90;;;;;;4997982;28;20047;-51
2023/05/07 08:32:07;;;;;;;13.60;12.20;;;11.90;99.90;;;;;;5003511;28;20034;-53
2023/05/07 08:34:53;;;;;;;13.02;11.80;;;11.90;99.90;;;;;;5001311;28;20070;-53
2023/05/07 08:37:39;;;;;;;13.35;11.98;;;12.00;99.90;;;;;;5005319;28;20487;-54
2023/05/07 08:40:29;;;;;;;13.50;12.10;;;11.90;99.90;;;;;;5007943;28;20037;-54
2023/05/07 08:43:16;;;;;;;18.02;15.88;;;11.90;99.90;;;;;;5006118;28;20030;-52
2023/05/07 08:46:04;;;;;;;15.48;13.88;;;11.90;99.90;;;;;;5005681;28;20035;-53
2023/05/07 08:48:51;;;;;;;12.63;11.43;;;12.00;99.90;;;;;;5008790;28;20034;-50
2023/05/07 08:51:37;;;;;;;17.08;13.68;;;12.10;99.90;;;;;;5011310;28;20070;-53
2023/05/07 08:54:24;;;;;;;32.35;21.10;;;12.10;99.90;;;;;;5012990;28;20033;-48
2023/05/07 08:57:10;;;;;;;21.45;16.60;;;12.10;99.90;;;;;;5010577;28;20108;-51
2023/05/07 08:59:56;;;;;;;11.95;10.68;;;12.20;99.90;;;;;;5010853;28;20037;-49
2023/05/07 09:02:42;;;;;;;13.02;11.50;;;12.20;99.90;;;;;;5006950;28;20034;-50
2023/05/07 09:05:28;;;;;;;12.70;11.07;;;12.10;99.90;;;;;;5007364;28;20038;-50
2023/05/07 09:08:16;;;;;;;11.55;10.02;;;12.10;99.90;;;;;;5006517;28;20490;-53
2023/05/07 09:11:02;;;;;;;11.23;10.13;;;12.20;99.90;;;;;;5007731;28;20406;-54
2023/05/07 09:13:52;;;;;;;12.65;11.27;;;12.30;99.90;;;;;;5008847;28;20414;-49
2023/05/07 09:16:38;;;;;;;12.90;11.63;;;12.30;99.90;;;;;;5009360;28;20102;-51
2023/05/07 09:19:28;;;;;;;12.18;10.82;;;12.30;99.90;;;;;;5005035;28;20553;-51
2023/05/07 09:22:14;;;;;;;11.25;10.05;;;12.40;99.90;;;;;;5006360;28;20018;-52
2023/05/07 09:25:00;;;;;;;12.13;10.90;;;12.40;99.90;;;;;;5011583;28;20395;-52
2023/05/07 09:27:46;;;;;;;12.38;10.45;;;12.40;99.90;;;;;;5006810;28;20399;-50
2023/05/07 09:30:33;;;;;;;11.70;10.55;;;12.40;99.90;;;;;;5008855;28;20058;-52
2023/05/07 09:33:19;;;;;;;14.00;12.55;;;12.30;99.90;;;;;;5006205;28;20014;-52
2023/05/07 09:36:08;;;;;;;12.57;11.35;;;12.30;99.90;;;;;;5015003;28;20058;-50
2023/05/07 09:38:56;;;;;;;13.02;11.70;;;12.20;99.90;;;;;;5010513;28;20038;-52
2023/05/07 09:41:46;;;;;;;17.02;13.27;;;12.30;99.90;;;;;;5006670;28;20386;-49
2023/05/07 09:44:34;;;;;;;15.25;13.23;;;12.10;99.90;;;;;;4994547;28;20030;-54
2023/05/07 09:47:23;;;;;;;18.45;14.27;;;12.10;99.90;;;;;;5005107;28;20049;-51
2023/05/07 09:50:10;;;;;;;14.15;12.65;;;12.10;99.90;;;;;;4995574;28;20034;-49
2023/05/07 09:52:57;;;;;;;14.70;13.02;;;12.30;99.90;;;;;;5001497;28;20490;-51
2023/05/07 09:55:43;;;;;;;15.73;13.13;;;12.40;99.90;;;;;;5003190;28;20081;-54
2023/05/07 09:58:32;;;;;;;15.77;14.13;;;12.40;99.90;;;;;;5004487;28;20041;-55
2023/05/07 10:01:21;;;;;;;16.02;14.38;;;12.40;99.90;;;;;;5005125;28;20037;-51
2023/05/07 10:04:08;;;;;;;15.85;14.25;;;12.30;99.90;;;;;;5004118;28;20499;-50
2023/05/07 10:06:55;;;;;;;16.50;14.40;;;12.20;99.90;;;;;;4996103;28;20089;-53
2023/05/07 10:09:43;;;;;;;17.33;15.07;;;12.10;99.90;;;;;;5004564;28;20100;-50
2023/05/07 10:12:37;;;;;;;18.23;14.93;;;12.10;99.90;;;;;;5002277;28;20032;-50
2023/05/07 10:15:24;;;;;;;16.00;14.40;;;12.10;99.90;;;;;;5004731;28;20371;-54
2023/05/07 10:18:16;;;;;;;15.90;14.40;;;12.10;99.90;;;;;;5010668;28;20022;-53
2023/05/07 10:21:13;;;;;;;15.52;13.93;;;12.20;99.90;;;;;;5014597;28;20037;-52
2023/05/07 10:24:21;;;;;;;16.30;14.60;;;12.10;99.90;;;;;;5010305;28;20030;-51
2023/05/07 10:27:12;;;;;;;14.48;12.98;;;12.20;99.90;;;;;;5008334;28;20022;-51
2023/05/07 10:30:12;;;;;;;14.95;13.55;;;12.40;99.90;;;;;;5004906;28;20034;-51
2023/05/07 10:33:05;;;;;;;15.82;14.30;;;12.50;99.90;;;;;;5008686;28;20029;-50
2023/05/07 10:35:55;;;;;;;15.93;14.32;;;12.50;99.90;;;;;;5007232;28;20471;-49
2023/05/07 10:38:42;;;;;;;16.10;14.50;;;12.50;99.90;;;;;;5001682;28;20022;-49
2023/05/07 10:41:28;;;;;;;17.27;15.48;;;12.30;99.90;;;;;;5005677;28;20557;-51
2023/05/07 10:44:29;;;;;;;19.98;17.45;;;12.30;99.90;;;;;;5004439;28;20026;-47
2023/05/07 10:47:18;;;;;;;18.25;16.33;;;12.30;99.90;;;;;;5002039;28;20029;-51
2023/05/07 10:50:20;;;;;;;17.08;15.38;;;12.40;99.90;;;;;;5001694;28;20446;-50
2023/05/07 10:53:21;;;;;;;16.50;14.90;;;12.40;99.90;;;;;;5002078;28;20491;-49
2023/05/07 10:56:26;;;;;;;17.00;15.05;;;12.40;99.90;;;;;;5002135;28;20034;-49
2023/05/07 10:59:21;;;;;;;16.63;15.02;;;12.50;99.90;;;;;;5001543;28;20021;-50
2023/05/07 11:02:09;;;;;;;17.25;14.98;;;12.70;99.90;;;;;;5002199;28;20088;-49
2023/05/07 11:05:21;;;;;;;18.38;15.98;;;12.80;99.90;;;;;;5003357;28;20113;-57
2023/05/07 11:08:07;;;;;;;16.75;15.15;;;12.90;99.90;;;;;;5004527;28;20026;-50
2023/05/07 11:10:58;;;;;;;17.38;15.57;;;12.90;99.90;;;;;;5005849;28;20035;-48
2023/05/07 11:13:47;;;;;;;16.73;15.13;;;12.80;99.90;;;;;;5005093;28;20105;-49
2023/05/07 11:16:36;;;;;;;16.45;14.73;;;12.60;99.90;;;;;;5002755;28;20041;-48
2023/05/07 11:19:51;;;;;;;16.35;14.85;;;12.50;99.90;;;;;;5000579;28;20069;-50
2023/05/07 11:22:39;;;;;;;13.18;12.02;;;12.70;99.90;;;;;;5003625;28;20034;-49
2023/05/07 11:25:25;;;;;;;14.23;12.80;;;12.60;99.90;;;;;;5001741;28;20042;-49
2023/05/07 11:28:12;;;;;;;13.60;12.30;;;12.60;99.90;;;;;;5002622;28;20057;-50
2023/05/07 11:30:58;;;;;;;13.90;12.50;;;12.70;99.90;;;;;;5004538;28;20117;-49
2023/05/07 11:33:44;;;;;;;14.13;12.82;;;12.90;99.90;;;;;;5004233;28;20487;-47
2023/05/07 11:36:32;;;;;;;12.82;11.63;;;12.90;99.90;;;;;;5004974;28;20061;-48
2023/05/07 11:39:30;;;;;;;12.82;11.52;;;12.90;99.90;;;;;;5008690;28;20506;-47
2023/05/07 11:42:33;;;;;;;12.43;11.15;;;13.00;99.90;;;;;;5009667;28;20059;-53
2023/05/07 11:45:25;;;;;;;13.68;12.15;;;12.90;99.90;;;;;;5001390;28;20062;-52
2023/05/07 11:48:13;;;;;;;14.90;12.75;;;13.00;99.90;;;;;;5004607;28;20412;-53
2023/05/07 11:50:59;;;;;;;14.73;12.60;;;13.00;99.90;;;;;;5005687;28;20066;-52
2023/05/07 11:53:45;;;;;;;14.30;12.90;;;13.00;99.90;;;;;;5003849;28;20023;-55
2023/05/07 11:56:35;;;;;;;15.10;13.65;;;13.00;99.90;;;;;;5001448;28;20022;-55
2023/05/07 11:59:21;;;;;;;14.15;12.80;;;13.00;99.90;;;;;;5000910;28;20030;-53
2023/05/07 12:02:08;;;;;;;14.95;13.45;;;13.10;99.90;;;;;;5006250;28;20022;-49
2023/05/07 12:04:54;;;;;;;15.30;13.80;;;13.10;99.90;;;;;;5008772;28;20030;-52
2023/05/07 12:07:40;;;;;;;16.40;14.80;;;13.10;99.90;;;;;;5012539;28;20122;-55
2023/05/07 12:10:26;;;;;;;14.65;13.35;;;13.20;99.90;;;;;;5014935;28;20030;-51
2023/05/07 12:13:16;;;;;;;14.77;13.23;;;13.20;99.90;;;;;;5016241;28;20095;-56
2023/05/07 12:16:05;;;;;;;13.52;12.23;;;13.10;99.90;;;;;;5016077;28;20049;-51
2023/05/07 12:18:52;;;;;;;12.70;11.50;;;12.90;99.90;;;;;;5016322;28;20026;-53
2023/05/07 12:21:39;;;;;;;12.13;10.93;;;13.00;99.90;;;;;;5016608;28;20034;-53
2023/05/07 12:24:25;;;;;;;10.73;9.70;;;13.10;99.90;;;;;;5017088;28;20449;-52
2023/05/07 12:27:11;;;;;;;10.70;9.57;;;13.30;99.90;;;;;;5015915;28;20022;-50
2023/05/07 12:29:59;;;;;;;11.38;9.70;;;13.60;99.90;;;;;;5016789;28;20037;-53
2023/05/07 12:32:45;;;;;;;11.68;9.27;;;13.80;99.90;;;;;;5014955;28;20028;-51
2023/05/07 12:35:39;;;;;;;10.70;9.15;;;13.90;99.90;;;;;;5014487;28;20491;-48
2023/05/07 12:38:25;;;;;;;10.73;9.63;;;13.80;99.90;;;;;;5015916;28;20109;-49
2023/05/07 12:41:12;;;;;;;10.25;9.27;;;13.70;99.90;;;;;;5015001;28;20030;-54
2023/05/07 12:43:58;;;;;;;11.30;10.23;;;13.60;99.90;;;;;;5015207;28;20034;-48
2023/05/07 12:46:44;;;;;;;11.63;10.45;;;13.50;99.90;;;;;;5014118;28;20026;-48
2023/05/07 12:49:30;;;;;;;13.48;11.68;;;13.50;99.90;;;;;;5014527;28;20034;-50
2023/05/07 12:52:16;;;;;;;14.52;12.02;;;13.60;99.90;;;;;;5016672;28;20034;-48
2023/05/07 12:55:06;;;;;;;13.38;11.88;;;13.70;99.90;;;;;;5015498;28;20045;-50
2023/05/07 12:57:53;;;;;;;14.52;12.65;;;13.60;99.90;;;;;;5015321;28;20042;-50
2023/05/07 13:00:39;;;;;;;15.15;13.65;;;13.50;99.90;;;;;;5015308;28;20034;-50
2023/05/07 13:03:30;;;;;;;13.88;12.48;;;13.40;99.90;;;;;;5015089;28;20076;-50
2023/05/07 13:06:16;;;;;;;14.25;12.85;;;13.40;99.90;;;;;;5015119;28;20120;-50
2023/05/07 13:09:02;;;;;;;13.73;12.40;;;13.40;99.90;;;;;;5013286;28;20060;-52
2023/05/07 13:11:48;;;;;;;15.68;14.18;;;13.40;99.90;;;;;;5012882;28;20026;-51
2023/05/07 13:14:34;;;;;;;14.80;13.25;;;13.60;99.90;;;;;;5014970;28;20033;-52
2023/05/07 13:17:20;;;;;;;14.20;12.88;;;13.70;99.90;;;;;;5014315;28;20474;-52
2023/05/07 13:20:08;;;;;;;14.27;12.77;;;13.60;99.90;;;;;;5009436;28;20030;-49
2023/05/07 13:22:54;;;;;;;12.13;11.02;;;13.70;99.90;;;;;;5008760;28;20037;-50
2023/05/07 13:25:40;;;;;;;12.40;11.20;;;13.70;99.90;;;;;;5010487;28;20495;-51
2023/05/07 13:28:26;;;;;;;13.48;10.57;;;13.90;99.90;;;;;;5012838;28;20030;-52
2023/05/07 13:31:12;;;;;;;10.98;9.50;;;13.80;99.90;;;;;;5008911;28;20037;-50
2023/05/07 13:33:58;;;;;;;11.15;10.07;;;13.80;99.90;;;;;;5006245;28;20402;-52
2023/05/07 13:36:44;;;;;;;11.27;9.82;;;14.10;99.90;;;;;;4999273;28;20022;-52
2023/05/07 13:39:29;;;;;;;11.35;10.32;;;14.30;99.40;;;;;;5008846;28;20045;-51
2023/05/07 13:42:16;;;;;;;9.73;8.82;;;14.20;99.70;;;;;;5017284;28;20089;-51
2023/05/07 13:45:03;;;;;;;9.15;8.25;;;14.50;99.40;;;;;;5013740;28;20038;-51
2023/05/07 13:47:50;;;;;;;8.75;7.85;;;14.50;98.70;;;;;;5013704;28;20034;-54
2023/05/07 13:50:36;;;;;;;7.88;7.05;;;14.50;98.90;;;;;;5012259;28;20053;-51
2023/05/07 13:53:22;;;;;;;8.05;7.15;;;14.50;98.70;;;;;;5000482;28;20670;-54
2023/05/07 13:56:08;;;;;;;8.50;7.60;;;14.60;98.80;;;;;;5000235;28;20424;-52
2023/05/07 13:58:54;;;;;;;8.20;7.30;;;14.50;98.80;;;;;;5002302;28;20475;-53
2023/05/07 14:01:41;;;;;;;7.68;6.93;;;14.40;99.00;;;;;;5001102;28;20081;-51
2023/05/07 14:04:27;;;;;;;8.95;7.40;;;14.40;99.20;;;;;;5001595;28;20027;-54
2023/05/07 14:07:12;;;;;;;8.18;7.47;;;14.40;99.20;;;;;;5011220;28;20044;-54
2023/05/07 14:09:58;;;;;;;10.98;8.30;;;14.30;99.40;;;;;;5005826;28;20033;-54